Observations for Trim Patrick St
| Time | AQI | Temp °C | Hum % | Pres Pa | CO μg/m³ | H₂S μg/m³ | NO μg/m³ | NO₂ μg/m³ | O₃ μg/m³ | SO₂ μg/m³ | PM1 μg/m³ | PM2.5 μg/m³ | PM10 μg/m³ |
|---|---|---|---|---|---|---|---|---|---|---|---|---|---|
| Thursday 6 August 2026 | |||||||||||||
| 10:57 | 1 | 23 | 46 | 68,857 | 0 | 0 | 2.13 | 6.17 | 65.74 | 5.92 | 2 | 6.68 | 7.35 |
| 10:55 | 1 | 23 | 47 | 68,894 | 0 | 0 | 2.39 | 4.46 | 65.83 | 6.16 | 2.86 | 8.13 | 8.94 |
| 10:53 | 1 | 22.9 | 48 | 68,880 | 0 | 0 | 2.48 | 3.09 | 62.34 | 5.32 | 2.86 | 7.3 | 8.03 |
| 10:52 | 1 | 22.9 | 47 | 68,904 | 0 | 0 | 2.28 | 2.65 | 53.12 | 5.39 | 2 | 6.62 | 7.28 |
| 10:50 | 1 | 22.9 | 48 | 68,902 | 0 | 0 | 2.5 | 3.92 | 51.24 | 5.62 | 2 | 6.54 | 7.19 |
| 10:49 | 1 | 22.9 | 47 | 68,900 | 0 | 0 | 2.38 | 5.91 | 65.2 | 6.3 | 2.86 | 7.36 | 8.1 |
| 10:48 | 1 | 22.9 | 49 | 68,896 | 0 | 0 | 2.59 | 7.33 | 54.77 | 5.48 | 2.86 | 7.27 | 7.99 |
| 10:45 | 1 | 22.9 | 48 | 68,945 | 0 | 0 | 2.4 | 5.77 | 59.38 | 5.57 | 2.86 | 7.33 | 8.07 |
| 10:44 | 1 | 23 | 49 | 68,928 | 0 | 0 | 2.68 | 6.78 | 57.76 | 5.54 | 2 | 6.45 | 7.1 |
| 10:43 | 1 | 23 | 48 | 68,930 | 0 | 0 | 2.51 | 4.32 | 52.83 | 5.58 | 2 | 7.3 | 8.03 |
| 10:42 | 1 | 22.9 | 47 | 68,935 | 0 | 0 | 2.35 | 4.31 | 46.12 | 5.42 | 2 | 7.36 | 8.1 |
| 10:41 | 1 | 23 | 50 | 68,935 | 0 | 0 | 2.82 | 5.92 | 62.23 | 6.06 | 2 | 6.39 | 7.03 |
| 10:40 | 1 | 23 | 49 | 68,935 | 0 | 0 | 2.58 | 8.02 | 52.68 | 5.82 | 2 | 6.5 | 7.15 |
| 10:39 | 1 | 23 | 50 | 68,935 | 0 | 0 | 2.75 | 8.08 | 59.72 | 6.32 | 2 | 6.43 | 7.07 |
| 10:38 | 1 | 23 | 50 | 68,937 | 0 | 0 | 2.8 | 5.19 | 55.7 | 6.02 | 2 | 6.41 | 7.05 |
| 10:37 | 1 | 23 | 48 | 68,973 | 0 | 0 | 2.54 | 7.31 | 64.41 | 5.57 | 2 | 6.51 | 7.17 |
| 10:36 | 1 | 23 | 48 | 68,959 | 0 | 0 | 2.41 | 5.19 | 46.72 | 5.56 | 2 | 7.34 | 8.07 |
| 10:35 | 1 | 23 | 49 | 68,973 | 0 | 0 | 2.55 | 4.66 | 42.62 | 4.9 | 2 | 6.5 | 7.14 |
| 10:34 | 1 | 23 | 49 | 68,991 | 0 | 0 | 2.59 | 1.73 | 44.99 | 5.76 | 2.86 | 8.01 | 8.82 |
| 10:33 | 1 | 22.9 | 50 | 69,014 | 0 | 0 | 2.83 | 9.23 | 62.25 | 6.41 | 2.86 | 7.91 | 8.7 |